KMFI

Marshfield Municipal Airport

Marshfield, Wisconsin, USA
METAR KMFI 221454Z AUTO 20005KT 10SM CLR 06/01 A2999 RMK AO2 SLP168 T00560011 58001 TSNO
Observed Flight Rules
Oct-22 @ 14:54 UTC (9 minutes ago) Visual Flight Rules
Wind Visibility Clouds
200° at 5 knots 10 miles
  • Clear skies
Temperatures Readings
Current 6°C / 43°F
Dewpoint 1°C / 34°F
Humidity 71%
Altimeter 29.99" Hg
Pressure 1016.8 hPa
Elevation 389
METAR KMFI 221454Z AUTO 20005KT 10SM CLR 06/01 A2999 RMK AO2 SLP168 T00560011 58001 TSNO
Observed Flight Rules
Oct-22 @ 14:54 UTC
(9 minutes ago)
VFR
Wind Visibility
200° at 5 knots 10 miles
Clouds
  • Clear skies
Temperature Dewpoint
6°C / 43°F 1°C / 34°F
Humidity Altimeter Pressure
71% 29.99" Hg 1016.8 hPa